sensor_id;sensor_type;location;lat;lon;timestamp;pressure;altitude;pressure_sealevel;temperature;humidity
22743;BME280;11538;48.884;8.696;2024-03-06T00:00:13;98825.50;;;5.80;100.00
22743;BME280;11538;48.884;8.696;2024-03-06T00:02:40;98826.59;;;5.84;100.00
22743;BME280;11538;48.884;8.696;2024-03-06T00:05:07;98824.69;;;5.84;100.00
22743;BME280;11538;48.884;8.696;2024-03-06T00:07:35;98836.28;;;5.85;100.00
22743;BME280;11538;48.884;8.696;2024-03-06T00:10:03;98833.28;;;5.81;100.00
22743;BME280;11538;48.884;8.696;2024-03-06T00:12:32;98835.72;;;5.83;100.00
22743;BME280;11538;48.884;8.696;2024-03-06T00:14:59;98833.03;;;5.88;100.00
22743;BME280;11538;48.884;8.696;2024-03-06T00:17:26;98830.88;;;5.85;100.00
22743;BME280;11538;48.884;8.696;2024-03-06T00:19:53;98833.03;;;5.88;100.00
22743;BME280;11538;48.884;8.696;2024-03-06T00:22:20;98832.50;;;5.91;100.00
22743;BME280;11538;48.884;8.696;2024-03-06T00:24:51;98838.72;;;5.97;100.00
22743;BME280;11538;48.884;8.696;2024-03-06T00:27:18;98836.28;;;5.95;100.00
22743;BME280;11538;48.884;8.696;2024-03-06T00:29:45;98835.75;;;5.93;100.00
22743;BME280;11538;48.884;8.696;2024-03-06T00:32:12;98844.91;;;5.92;100.00
22743;BME280;11538;48.884;8.696;2024-03-06T00:34:39;98836.28;;;5.95;100.00
22743;BME280;11538;48.884;8.696;2024-03-06T00:37:07;98837.94;;;6.02;100.00
22743;BME280;11538;48.884;8.696;2024-03-06T00:39:35;98842.00;;;6.04;100.00
22743;BME280;11538;48.884;8.696;2024-03-06T00:42:03;98842.00;;;6.04;100.00
22743;BME280;11538;48.884;8.696;2024-03-06T00:44:29;98837.91;;;5.96;100.00
22743;BME280;11538;48.884;8.696;2024-03-06T00:46:57;98836.81;;;5.87;100.00
22743;BME280;11538;48.884;8.696;2024-03-06T00:49:24;98824.69;;;5.84;100.00
22743;BME280;11538;48.884;8.696;2024-03-06T00:51:50;98824.97;;;5.83;100.00
22743;BME280;11538;48.884;8.696;2024-03-06T00:54:17;98824.44;;;5.86;100.00
22743;BME280;11538;48.884;8.696;2024-03-06T00:56:44;98817.16;;;5.81;100.00
22743;BME280;11538;48.884;8.696;2024-03-06T00:59:11;98824.97;;;5.78;100.00
22743;BME280;11538;48.884;8.696;2024-03-06T01:01:39;98826.03;;;5.82;100.00
22743;BME280;11538;48.884;8.696;2024-03-06T01:04:06;98828.75;;;5.87;100.00
22743;BME280;11538;48.884;8.696;2024-03-06T01:06:32;98825.75;;;5.78;100.00
22743;BME280;11538;48.884;8.696;2024-03-06T01:08:59;98833.56;;;5.75;100.00
22743;BME280;11538;48.884;8.696;2024-03-06T01:11:26;98833.53;;;5.59;100.00
22743;BME280;11538;48.884;8.696;2024-03-06T01:13:54;98831.91;;;5.53;100.00
22743;BME280;11538;48.884;8.696;2024-03-06T01:16:21;98829.22;;;5.58;100.00
22743;BME280;11538;48.884;8.696;2024-03-06T01:18:48;98836.75;;;5.56;100.00
22743;BME280;11538;48.884;8.696;2024-03-06T01:21:15;98843.75;;;5.57;100.00
22743;BME280;11538;48.884;8.696;2024-03-06T01:23:42;98838.38;;;5.57;100.00
22743;BME280;11538;48.884;8.696;2024-03-06T01:26:10;98837.53;;;5.51;100.00
22743;BME280;11538;48.884;8.696;2024-03-06T01:28:38;98838.38;;;5.57;100.00
22743;BME280;11538;48.884;8.696;2024-03-06T01:31:06;98838.63;;;5.61;100.00
22743;BME280;11538;48.884;8.696;2024-03-06T01:33:33;98839.47;;;5.61;100.00
22743;BME280;11538;48.884;8.696;2024-03-06T01:36:00;98842.69;;;5.63;100.00
22743;BME280;11538;48.884;8.696;2024-03-06T01:38:27;98840.28;;;5.67;100.00
22743;BME280;11538;48.884;8.696;2024-03-06T01:40:54;98838.38;;;5.62;100.00
22743;BME280;11538;48.884;8.696;2024-03-06T01:43:24;98850.22;;;5.61;100.00
22743;BME280;11538;48.884;8.696;2024-03-06T01:45:52;98848.31;;;5.62;100.00
22743;BME280;11538;48.884;8.696;2024-03-06T01:48:27;98849.13;;;5.57;100.00
22743;BME280;11538;48.884;8.696;2024-03-06T01:50:58;98848.06;;;5.58;100.00
22743;BME280;11538;48.884;8.696;2024-03-06T01:53:31;98852.88;;;5.51;100.00
22743;BME280;11538;48.884;8.696;2024-03-06T01:55:59;98853.97;;;5.50;100.00
22743;BME280;11538;48.884;8.696;2024-03-06T01:58:26;98845.38;;;5.58;100.00
22743;BME280;11538;48.884;8.696;2024-03-06T02:00:54;98835.72;;;5.67;100.00
22743;BME280;11538;48.884;8.696;2024-03-06T02:03:22;98832.75;;;5.74;100.00
22743;BME280;11538;48.884;8.696;2024-03-06T02:05:51;98835.72;;;5.78;100.00
22743;BME280;11538;48.884;8.696;2024-03-06T02:08:19;98838.94;;;5.69;100.00
22743;BME280;11538;48.884;8.696;2024-03-06T02:10:46;98843.47;;;5.59;100.00
22743;BME280;11538;48.884;8.696;2024-03-06T02:13:14;98842.66;;;5.53;100.00
22743;BME280;11538;48.884;8.696;2024-03-06T02:15:44;98838.34;;;5.47;100.00
22743;BME280;11538;48.884;8.696;2024-03-06T02:18:11;98838.34;;;5.47;100.00
22743;BME280;11538;48.884;8.696;2024-03-06T02:20:39;98837.81;;;5.50;100.00
22743;BME280;11538;48.884;8.696;2024-03-06T02:23:09;98839.16;;;5.52;100.00
22743;BME280;11538;48.884;8.696;2024-03-06T02:25:36;98838.38;;;5.52;100.00
22743;BME280;11538;48.884;8.696;2024-03-06T02:28:03;98834.06;;;5.56;100.00
22743;BME280;11538;48.884;8.696;2024-03-06T02:30:32;98837.00;;;5.54;100.00
22743;BME280;11538;48.884;8.696;2024-03-06T02:33:04;98842.13;;;5.51;100.00
22743;BME280;11538;48.884;8.696;2024-03-06T02:35:33;98837.28;;;5.48;100.00
22743;BME280;11538;48.884;8.696;2024-03-06T02:38:02;98839.69;;;5.49;100.00
22743;BME280;11538;48.884;8.696;2024-03-06T02:40:32;98844.00;;;5.50;100.00
22743;BME280;11538;48.884;8.696;2024-03-06T02:43:00;98843.44;;;5.43;100.00
22743;BME280;11538;48.884;8.696;2024-03-06T02:45:26;98838.06;;;5.43;100.00
22743;BME280;11538;48.884;8.696;2024-03-06T02:47:54;98840.50;;;5.50;100.00
22743;BME280;11538;48.884;8.696;2024-03-06T02:50:21;98839.69;;;5.54;100.00
22743;BME280;11538;48.884;8.696;2024-03-06T02:52:48;98846.47;;;5.62;100.00
22743;BME280;11538;48.884;8.696;2024-03-06T02:55:15;98850.25;;;5.66;100.00
22743;BME280;11538;48.884;8.696;2024-03-06T02:57:42;98854.25;;;5.64;100.00
22743;BME280;11538;48.884;8.696;2024-03-06T03:00:10;98866.38;;;5.66;100.00
22743;BME280;11538;48.884;8.696;2024-03-06T03:02:40;98863.69;;;5.66;100.00
22743;BME280;11538;48.884;8.696;2024-03-06T03:05:08;98855.88;;;5.65;100.00
22743;BME280;11538;48.884;8.696;2024-03-06T03:07:35;98860.47;;;5.75;100.00
22743;BME280;11538;48.884;8.696;2024-03-06T03:10:02;98856.97;;;5.79;100.00
22743;BME280;11538;48.884;8.696;2024-03-06T03:12:31;98862.63;;;5.78;100.00
22743;BME280;11538;48.884;8.696;2024-03-06T03:14:58;98866.41;;;5.82;100.00
22743;BME280;11538;48.884;8.696;2024-03-06T03:17:25;98856.72;;;5.86;100.00
22743;BME280;11538;48.884;8.696;2024-03-06T03:19:52;98859.69;;;5.84;100.00
22743;BME280;11538;48.884;8.696;2024-03-06T03:22:19;98858.03;;;5.73;100.00
22743;BME280;11538;48.884;8.696;2024-03-06T03:24:46;98862.88;;;5.66;100.00
22743;BME280;11538;48.884;8.696;2024-03-06T03:27:14;98850.75;;;5.58;100.00
22743;BME280;11538;48.884;8.696;2024-03-06T03:29:41;98850.22;;;5.61;100.00
22743;BME280;11538;48.884;8.696;2024-03-06T03:32:08;98851.28;;;5.55;100.00
22743;BME280;11538;48.884;8.696;2024-03-06T03:34:35;98857.75;;;5.54;100.00
22743;BME280;11538;48.884;8.696;2024-03-06T03:37:02;98856.66;;;5.55;100.00
22743;BME280;11538;48.884;8.696;2024-03-06T03:39:29;98855.06;;;5.54;100.00
22743;BME280;11538;48.884;8.696;2024-03-06T03:41:56;98851.28;;;5.55;100.00
22743;BME280;11538;48.884;8.696;2024-03-06T03:44:23;98855.56;;;5.51;100.00
22743;BME280;11538;48.884;8.696;2024-03-06T03:46:50;98859.59;;;5.53;100.00
22743;BME280;11538;48.884;8.696;2024-03-06T03:49:17;98858.03;;;5.63;100.00
22743;BME280;11538;48.884;8.696;2024-03-06T03:51:45;98863.72;;;5.71;100.00
22743;BME280;11538;48.884;8.696;2024-03-06T03:54:12;98861.53;;;5.68;100.00
22743;BME280;11538;48.884;8.696;2024-03-06T03:56:39;98859.63;;;5.64;100.00
22743;BME280;11538;48.884;8.696;2024-03-06T03:59:06;98871.78;;;5.71;100.00
22743;BME280;11538;48.884;8.696;2024-03-06T04:01:34;98873.66;;;5.76;100.00
22743;BME280;11538;48.884;8.696;2024-03-06T04:04:01;98876.38;;;5.81;100.00
22743;BME280;11538;48.884;8.696;2024-03-06T04:06:28;98881.47;;;5.78;100.00
22743;BME280;11538;48.884;8.696;2024-03-06T04:08:55;98884.69;;;5.69;100.00
22743;BME280;11538;48.884;8.696;2024-03-06T04:11:22;98882.53;;;5.66;100.00
22743;BME280;11538;48.884;8.696;2024-03-06T04:13:50;98884.16;;;5.67;100.00
22743;BME280;11538;48.884;8.696;2024-03-06T04:16:17;98884.16;;;5.73;100.00
22743;BME280;11538;48.884;8.696;2024-03-06T04:18:47;98893.00;;;5.68;100.00
22743;BME280;11538;48.884;8.696;2024-03-06T04:21:14;98887.94;;;5.71;100.00
22743;BME280;11538;48.884;8.696;2024-03-06T04:23:43;98893.03;;;5.73;100.00
22743;BME280;11538;48.884;8.696;2024-03-06T04:26:11;98900.56;;;5.71;100.00
22743;BME280;11538;48.884;8.696;2024-03-06T04:28:38;98900.03;;;5.74;100.00
22743;BME280;11538;48.884;8.696;2024-03-06T04:31:05;98905.94;;;5.66;100.00
22743;BME280;11538;48.884;8.696;2024-03-06T04:33:32;98901.91;;;5.63;100.00
22743;BME280;11538;48.884;8.696;2024-03-06T04:36:03;98899.47;;;5.62;100.00
22743;BME280;11538;48.884;8.696;2024-03-06T04:38:32;98897.84;;;5.66;100.00
22743;BME280;11538;48.884;8.696;2024-03-06T04:40:59;98908.63;;;5.71;100.00
22743;BME280;11538;48.884;8.696;2024-03-06T04:43:26;98903.78;;;5.73;100.00
22743;BME280;11538;48.884;8.696;2024-03-06T04:45:53;98903.00;;;5.67;100.00
22743;BME280;11538;48.884;8.696;2024-03-06T04:48:19;98905.69;;;5.67;100.00
22743;BME280;11538;48.884;8.696;2024-03-06T04:50:47;98907.28;;;5.63;100.00
22743;BME280;11538;48.884;8.696;2024-03-06T04:53:14;98921.50;;;5.59;100.00
22743;BME280;11538;48.884;8.696;2024-03-06T04:55:41;98925.28;;;5.57;100.00
22743;BME280;11538;48.884;8.696;2024-03-06T04:58:08;98933.88;;;5.54;100.00
22743;BME280;11538;48.884;8.696;2024-03-06T05:00:35;98934.72;;;5.60;100.00
22743;BME280;11538;48.884;8.696;2024-03-06T05:03:03;98936.34;;;5.61;100.00
22743;BME280;11538;48.884;8.696;2024-03-06T05:05:47;98939.56;;;5.58;100.00
22743;BME280;11538;48.884;8.696;2024-03-06T05:08:32;98933.66;;;5.61;100.00
22743;BME280;11538;48.884;8.696;2024-03-06T05:11:16;98942.25;;;5.63;100.00
22743;BME280;11538;48.884;8.696;2024-03-06T05:14:00;98944.97;;;5.68;100.00
22743;BME280;11538;48.884;8.696;2024-03-06T05:16:45;98951.69;;;5.71;100.00
22743;BME280;11538;48.884;8.696;2024-03-06T05:19:29;98950.91;;;5.70;100.00
22743;BME280;11538;48.884;8.696;2024-03-06T05:22:17;98953.28;;;5.67;100.00
22743;BME280;11538;48.884;8.696;2024-03-06T05:25:02;98957.59;;;5.63;100.00
22743;BME280;11538;48.884;8.696;2024-03-06T05:27:46;98956.25;;;5.60;100.00
22743;BME280;11538;48.884;8.696;2024-03-06T05:30:31;98964.59;;;5.64;100.00
22743;BME280;11538;48.884;8.696;2024-03-06T05:33:15;98965.16;;;5.71;100.00
22743;BME280;11538;48.884;8.696;2024-03-06T05:36:00;98964.34;;;5.65;100.00
22743;BME280;11538;48.884;8.696;2024-03-06T05:38:45;98965.66;;;5.63;100.00
22743;BME280;11538;48.884;8.696;2024-03-06T05:41:30;98974.59;;;5.68;100.00
22743;BME280;11538;48.884;8.696;2024-03-06T05:44:14;98982.88;;;5.62;100.00
22743;BME280;11538;48.884;8.696;2024-03-06T05:47:00;98975.63;;;5.62;100.00
22743;BME280;11538;48.884;8.696;2024-03-06T05:49:45;98980.47;;;5.60;100.00
22743;BME280;11538;48.884;8.696;2024-03-06T05:52:30;98977.50;;;5.62;100.00
22743;BME280;11538;48.884;8.696;2024-03-06T05:55:15;98982.91;;;5.67;100.00
22743;BME280;11538;48.884;8.696;2024-03-06T05:57:59;98988.00;;;5.63;100.00
22743;BME280;11538;48.884;8.696;2024-03-06T06:00:38;98986.41;;;5.62;100.00
22743;BME280;11538;48.884;8.696;2024-03-06T06:03:07;98989.66;;;5.69;100.00
22743;BME280;11538;48.884;8.696;2024-03-06T06:05:34;98990.19;;;5.71;100.00
22743;BME280;11538;48.884;8.696;2024-03-06T06:08:03;98997.16;;;5.62;100.00
22743;BME280;11538;48.884;8.696;2024-03-06T06:10:31;98997.69;;;5.59;100.00
22743;BME280;11538;48.884;8.696;2024-03-06T06:12:58;98996.06;;;5.58;100.00
22743;BME280;11538;48.884;8.696;2024-03-06T06:15:25;98995.50;;;5.56;100.00
22743;BME280;11538;48.884;8.696;2024-03-06T06:17:52;99005.22;;;5.62;100.00
22743;BME280;11538;48.884;8.696;2024-03-06T06:20:20;99003.09;;;5.64;100.00
22743;BME280;11538;48.884;8.696;2024-03-06T06:22:47;99006.59;;;5.70;100.00
22743;BME280;11538;48.884;8.696;2024-03-06T06:25:14;99010.88;;;5.66;100.00
22743;BME280;11538;48.884;8.696;2024-03-06T06:27:42;99009.53;;;5.63;100.00
22743;BME280;11538;48.884;8.696;2024-03-06T06:30:10;99008.22;;;5.71;100.00
22743;BME280;11538;48.884;8.696;2024-03-06T06:32:40;99013.38;;;5.78;100.00
22743;BME280;11538;48.884;8.696;2024-03-06T06:35:12;99015.53;;;5.81;100.00
22743;BME280;11538;48.884;8.696;2024-03-06T06:37:41;99020.41;;;5.84;100.00
22743;BME280;11538;48.884;8.696;2024-03-06T06:40:09;99019.84;;;5.82;100.00
22743;BME280;11538;48.884;8.696;2024-03-06T06:42:36;99026.53;;;5.74;100.00
22743;BME280;11538;48.884;8.696;2024-03-06T06:45:04;99019.53;;;5.73;100.00
22743;BME280;11538;48.884;8.696;2024-03-06T06:47:36;99031.69;;;5.81;100.00
22743;BME280;11538;48.884;8.696;2024-03-06T06:50:03;99027.09;;;5.81;100.00
22743;BME280;11538;48.884;8.696;2024-03-06T06:52:35;99032.00;;;5.90;100.00
22743;BME280;11538;48.884;8.696;2024-03-06T06:55:03;99040.91;;;5.95;100.00
22743;BME280;11538;48.884;8.696;2024-03-06T06:57:31;99043.84;;;5.94;100.00
22743;BME280;11538;48.884;8.696;2024-03-06T07:00:01;99044.69;;;5.94;100.00
22743;BME280;11538;48.884;8.696;2024-03-06T07:02:28;99049.59;;;6.03;100.00
22743;BME280;11538;48.884;8.696;2024-03-06T07:04:55;99048.53;;;6.04;100.00
22743;BME280;11538;48.884;8.696;2024-03-06T07:07:22;99048.47;;;5.98;100.00
22743;BME280;11538;48.884;8.696;2024-03-06T07:09:48;99047.38;;;5.94;100.00
22743;BME280;11538;48.884;8.696;2024-03-06T07:12:15;99048.78;;;6.02;100.00
22743;BME280;11538;48.884;8.696;2024-03-06T07:14:42;99053.91;;;6.04;100.00
22743;BME280;11538;48.884;8.696;2024-03-06T07:17:09;99053.38;;;6.07;100.00
22743;BME280;11538;48.884;8.696;2024-03-06T07:19:36;99045.06;;;6.13;100.00
22743;BME280;11538;48.884;8.696;2024-03-06T07:22:03;99058.00;;;6.17;100.00
22743;BME280;11538;48.884;8.696;2024-03-06T07:24:30;99056.41;;;6.21;100.00
22743;BME280;11538;48.884;8.696;2024-03-06T07:26:57;99053.44;;;6.22;100.00
22743;BME280;11538;48.884;8.696;2024-03-06T07:29:24;99055.88;;;6.24;100.00
22743;BME280;11538;48.884;8.696;2024-03-06T07:31:52;99064.22;;;6.22;100.00
22743;BME280;11538;48.884;8.696;2024-03-06T07:34:22;99066.41;;;6.36;100.00
22743;BME280;11538;48.884;8.696;2024-03-06T07:36:49;99066.72;;;6.44;100.00
22743;BME280;11538;48.884;8.696;2024-03-06T07:39:20;99071.28;;;6.49;100.00
22743;BME280;11538;48.884;8.696;2024-03-06T07:41:47;99073.72;;;6.46;100.00
22743;BME280;11538;48.884;8.696;2024-03-06T07:44:16;99071.56;;;6.42;100.00
22743;BME280;11538;48.884;8.696;2024-03-06T07:46:43;99070.19;;;6.45;100.00
22743;BME280;11538;48.884;8.696;2024-03-06T07:49:11;99073.19;;;6.49;100.00
22743;BME280;11538;48.884;8.696;2024-03-06T07:51:38;99076.69;;;6.54;100.00
22743;BME280;11538;48.884;8.696;2024-03-06T07:54:07;99078.31;;;6.55;100.00
22743;BME280;11538;48.884;8.696;2024-03-06T07:56:34;99078.31;;;6.55;100.00
22743;BME280;11538;48.884;8.696;2024-03-06T07:59:01;99085.63;;;6.60;100.00
22743;BME280;11538;48.884;8.696;2024-03-06T08:01:28;99083.75;;;6.66;100.00
22743;BME280;11538;48.884;8.696;2024-03-06T08:03:59;99086.47;;;6.71;100.00
22743;BME280;11538;48.884;8.696;2024-03-06T08:06:26;99078.63;;;6.75;100.00
22743;BME280;11538;48.884;8.696;2024-03-06T08:08:55;99080.81;;;6.83;100.00
22743;BME280;11538;48.884;8.696;2024-03-06T08:11:26;99088.09;;;6.87;100.00
22743;BME280;11538;48.884;8.696;2024-03-06T08:14:00;99081.63;;;6.88;100.00
22743;BME280;11538;48.884;8.696;2024-03-06T08:16:28;99097.28;;;6.92;100.00
22743;BME280;11538;48.884;8.696;2024-03-06T08:19:00;99093.22;;;6.99;100.00
22743;BME280;11538;48.884;8.696;2024-03-06T08:21:28;99098.09;;;7.02;100.00
22743;BME280;11538;48.884;8.696;2024-03-06T08:23:55;99097.28;;;7.02;100.00
22743;BME280;11538;48.884;8.696;2024-03-06T08:26:22;99102.94;;;7.06;100.00
22743;BME280;11538;48.884;8.696;2024-03-06T08:28:49;99103.50;;;7.08;100.00
22743;BME280;11538;48.884;8.696;2024-03-06T08:31:19;99102.69;;;7.07;100.00
22743;BME280;11538;48.884;8.696;2024-03-06T08:33:48;99110.25;;;7.10;100.00
22743;BME280;11538;48.884;8.696;2024-03-06T08:36:15;99102.69;;;7.12;100.00
22743;BME280;11538;48.884;8.696;2024-03-06T08:38:42;99111.03;;;7.11;100.00
22743;BME280;11538;48.884;8.696;2024-03-06T08:41:09;99110.25;;;7.15;100.00
22743;BME280;11538;48.884;8.696;2024-03-06T08:43:36;99098.91;;;7.19;100.00
22743;BME280;11538;48.884;8.696;2024-03-06T08:46:03;99112.94;;;7.21;100.00
22743;BME280;11538;48.884;8.696;2024-03-06T08:48:30;99118.34;;;7.26;100.00
22743;BME280;11538;48.884;8.696;2024-03-06T08:50:58;99114.28;;;7.28;100.00
22743;BME280;11538;48.884;8.696;2024-03-06T08:53:25;99115.09;;;7.34;100.00
22743;BME280;11538;48.884;8.696;2024-03-06T08:55:52;99125.09;;;7.39;100.00
22743;BME280;11538;48.884;8.696;2024-03-06T08:58:19;99124.28;;;7.43;100.00
22743;BME280;11538;48.884;8.696;2024-03-06T09:00:47;99128.34;;;7.46;100.00
22743;BME280;11538;48.884;8.696;2024-03-06T09:03:15;99132.38;;;7.49;100.00
22743;BME280;11538;48.884;8.696;2024-03-06T09:05:42;99128.06;;;7.47;100.00
22743;BME280;11538;48.884;8.696;2024-03-06T09:08:09;99135.63;;;7.45;100.00
22743;BME280;11538;48.884;8.696;2024-03-06T09:10:39;99132.91;;;7.45;100.00
22743;BME280;11538;48.884;8.696;2024-03-06T09:13:07;99132.66;;;7.52;100.00
22743;BME280;11538;48.884;8.696;2024-03-06T09:15:34;99136.44;;;7.56;100.00
22743;BME280;11538;48.884;8.696;2024-03-06T09:18:01;99140.75;;;7.47;100.00
22743;BME280;11538;48.884;8.696;2024-03-06T09:20:29;99141.00;;;7.45;100.00
22743;BME280;11538;48.884;8.696;2024-03-06T09:22:57;99136.97;;;7.48;100.00
22743;BME280;11538;48.884;8.696;2024-03-06T09:25:25;99142.09;;;7.60;100.00
22743;BME280;11538;48.884;8.696;2024-03-06T09:27:56;99139.94;;;7.57;100.00
22743;BME280;11538;48.884;8.696;2024-03-06T09:30:23;99146.16;;;7.57;100.00
22743;BME280;11538;48.884;8.696;2024-03-06T09:32:51;99149.09;;;7.61;100.00
22743;BME280;11538;48.884;8.696;2024-03-06T09:35:18;99152.63;;;7.67;100.00
22743;BME280;11538;48.884;8.696;2024-03-06T09:37:46;99148.31;;;7.66;100.00
22743;BME280;11538;48.884;8.696;2024-03-06T09:40:21;99163.13;;;7.68;100.00
22743;BME280;11538;48.884;8.696;2024-03-06T09:42:50;99155.56;;;7.75;100.00
22743;BME280;11538;48.884;8.696;2024-03-06T09:45:18;99164.19;;;7.88;100.00
22743;BME280;11538;48.884;8.696;2024-03-06T09:47:49;99157.47;;;7.85;100.00
22743;BME280;11538;48.884;8.696;2024-03-06T09:50:23;99165.84;;;7.79;100.00
22743;BME280;11538;48.884;8.696;2024-03-06T09:52:55;99162.59;;;7.71;100.00
22743;BME280;11538;48.884;8.696;2024-03-06T09:55:22;99160.97;;;7.70;100.00
22743;BME280;11538;48.884;8.696;2024-03-06T09:57:49;99153.69;;;7.71;100.00
22743;BME280;11538;48.884;8.696;2024-03-06T10:00:17;99167.47;;;7.74;100.00
22743;BME280;11538;48.884;8.696;2024-03-06T10:03:07;99163.13;;;7.73;100.00
22743;BME280;11538;48.884;8.696;2024-03-06T10:05:35;99165.84;;;7.73;100.00
22743;BME280;11538;48.884;8.696;2024-03-06T10:08:03;99168.81;;;7.77;100.00
22743;BME280;11538;48.884;8.696;2024-03-06T10:10:31;99172.06;;;7.84;100.00
22743;BME280;11538;48.884;8.696;2024-03-06T10:12:58;99170.69;;;7.87;100.00
22743;BME280;11538;48.884;8.696;2024-03-06T10:15:29;99170.97;;;7.90;100.00
22743;BME280;11538;48.884;8.696;2024-03-06T10:18:15;99165.81;;;7.84;100.00
22743;BME280;11538;48.884;8.696;2024-03-06T10:20:45;99166.91;;;7.78;100.00
22743;BME280;11538;48.884;8.696;2024-03-06T10:23:12;99166.38;;;7.75;100.00
22743;BME280;11538;48.884;8.696;2024-03-06T10:25:42;99173.41;;;7.71;100.00
22743;BME280;11538;48.884;8.696;2024-03-06T10:28:11;99166.91;;;7.72;100.00
22743;BME280;11538;48.884;8.696;2024-03-06T10:30:41;99168.53;;;7.73;100.00
22743;BME280;11538;48.884;8.696;2024-03-06T10:33:14;99177.19;;;7.60;100.00
22743;BME280;11538;48.884;8.696;2024-03-06T10:35:43;99168.53;;;7.58;100.00
22743;BME280;11538;48.884;8.696;2024-03-06T10:38:13;99175.84;;;7.57;100.00
22743;BME280;11538;48.884;8.696;2024-03-06T10:40:42;99173.41;;;7.71;100.00
22743;BME280;11538;48.884;8.696;2024-03-06T10:43:10;99178.53;;;7.73;100.00
22743;BME280;11538;48.884;8.696;2024-03-06T10:45:50;99177.47;;;7.64;100.00
22743;BME280;11538;48.884;8.696;2024-03-06T10:48:19;99179.09;;;7.65;100.00
22743;BME280;11538;48.884;8.696;2024-03-06T10:50:49;99177.47;;;7.64;100.00
22743;BME280;11538;48.884;8.696;2024-03-06T10:53:18;99176.66;;;7.68;100.00
22743;BME280;11538;48.884;8.696;2024-03-06T10:55:50;99175.03;;;7.62;100.00
22743;BME280;11538;48.884;8.696;2024-03-06T10:58:19;99176.66;;;7.63;100.00
22743;BME280;11538;48.884;8.696;2024-03-06T11:00:48;99178.53;;;7.73;100.00
22743;BME280;11538;48.884;8.696;2024-03-06T11:03:16;99179.34;;;7.73;100.00
22743;BME280;11538;48.884;8.696;2024-03-06T11:05:45;99178.00;;;7.81;100.00
22743;BME280;11538;48.884;8.696;2024-03-06T11:08:15;99175.56;;;7.80;100.00
22743;BME280;11538;48.884;8.696;2024-03-06T11:10:44;99178.78;;;7.82;100.00
22743;BME280;11538;48.884;8.696;2024-03-06T11:15:57;99172.59;;;7.86;100.00
22743;BME280;11538;48.884;8.696;2024-03-06T11:23:31;99176.91;;;7.98;100.00
22743;BME280;11538;48.884;8.696;2024-03-06T11:26:06;99176.34;;;8.01;100.00
22743;BME280;11538;48.884;8.696;2024-03-06T11:28:37;99179.34;;;7.99;100.00
22743;BME280;11538;48.884;8.696;2024-03-06T11:31:09;99177.44;;;7.95;100.00
22743;BME280;11538;48.884;8.696;2024-03-06T11:33:47;99183.13;;;7.98;100.00
22743;BME280;11538;48.884;8.696;2024-03-06T11:36:27;99181.75;;;8.01;100.00
22743;BME280;11538;48.884;8.696;2024-03-06T11:39:07;99176.34;;;8.01;100.00
22743;BME280;11538;48.884;8.696;2024-03-06T11:44:20;99182.28;;;7.98;100.00
22743;BME280;11538;48.884;8.696;2024-03-06T11:49:28;99182.03;;;7.99;100.00
22743;BME280;11538;48.884;8.696;2024-03-06T11:52:00;99180.13;;;8.00;100.00
22743;BME280;11538;48.884;8.696;2024-03-06T11:54:27;99186.34;;;8.05;100.00
22743;BME280;11538;48.884;8.696;2024-03-06T11:56:58;99181.47;;;8.08;100.00
22743;BME280;11538;48.884;8.696;2024-03-06T11:59:36;99176.84;;;8.13;100.00
22743;BME280;11538;48.884;8.696;2024-03-06T12:02:07;99177.13;;;8.17;100.00
22743;BME280;11538;48.884;8.696;2024-03-06T12:04:36;99186.56;;;8.19;100.00
22743;BME280;11538;48.884;8.696;2024-03-06T12:07:08;99178.22;;;8.21;100.00
22743;BME280;11538;48.884;8.696;2024-03-06T12:09:38;99182.81;;;8.15;100.00
22743;BME280;11538;48.884;8.696;2024-03-06T12:12:10;99187.69;;;8.08;100.00
22743;BME280;11538;48.884;8.696;2024-03-06T12:14:38;99187.97;;;8.01;100.00
22743;BME280;11538;48.884;8.696;2024-03-06T12:17:13;99199.03;;;8.00;100.00
22743;BME280;11538;48.884;8.696;2024-03-06T12:19:44;99189.06;;;7.95;100.00
22743;BME280;11538;48.884;8.696;2024-03-06T12:22:12;99189.59;;;7.92;100.00
22743;BME280;11538;48.884;8.696;2024-03-06T12:24:39;99183.94;;;7.88;100.00
22743;BME280;11538;48.884;8.696;2024-03-06T12:27:07;99183.38;;;7.86;100.00
22743;BME280;11538;48.884;8.696;2024-03-06T12:29:35;99189.59;;;7.82;100.00
22743;BME280;11538;48.884;8.696;2024-03-06T12:32:04;99194.75;;;7.83;100.00
22743;BME280;11538;48.884;8.696;2024-03-06T12:34:31;99191.75;;;7.85;100.00
22743;BME280;11538;48.884;8.696;2024-03-06T12:37:09;99193.66;;;7.84;100.00
22743;BME280;11538;48.884;8.696;2024-03-06T12:39:38;99194.44;;;7.85;100.00
22743;BME280;11538;48.884;8.696;2024-03-06T12:42:09;99184.72;;;7.84;100.00
22743;BME280;11538;48.884;8.696;2024-03-06T12:44:37;99194.44;;;7.85;100.00
22743;BME280;11538;48.884;8.696;2024-03-06T12:47:06;99190.66;;;7.86;100.00
22743;BME280;11538;48.884;8.696;2024-03-06T12:49:33;99192.81;;;7.89;100.00
22743;BME280;11538;48.884;8.696;2024-03-06T12:52:00;99192.56;;;7.90;100.00
22743;BME280;11538;48.884;8.696;2024-03-06T12:54:31;99197.16;;;7.90;100.00
22743;BME280;11538;48.884;8.696;2024-03-06T12:56:58;99192.03;;;7.94;100.00
22743;BME280;11538;48.884;8.696;2024-03-06T12:59:25;99197.16;;;7.90;100.00
22743;BME280;11538;48.884;8.696;2024-03-06T13:01:52;99193.91;;;7.88;100.00
22743;BME280;11538;48.884;8.696;2024-03-06T13:04:21;99189.34;;;7.88;100.00
22743;BME280;11538;48.884;8.696;2024-03-06T13:06:48;99183.09;;;7.93;100.00
22743;BME280;11538;48.884;8.696;2024-03-06T13:09:15;99189.59;;;7.97;100.00
22743;BME280;11538;48.884;8.696;2024-03-06T13:11:42;99178.81;;;7.97;100.00
22743;BME280;11538;48.884;8.696;2024-03-06T13:14:09;99184.75;;;7.99;100.00
22743;BME280;11538;48.884;8.696;2024-03-06T13:16:39;99177.72;;;7.98;100.00
22743;BME280;11538;48.884;8.696;2024-03-06T13:19:07;99178.78;;;8.08;100.00
22743;BME280;11538;48.884;8.696;2024-03-06T13:21:34;99175.78;;;8.09;100.00
22743;BME280;11538;48.884;8.696;2024-03-06T13:24:02;99184.19;;;8.08;100.00